• Join FlightAware (Why Join?)
  • Login
  • US Flag 
Rudolph Flight #1: Arrived! 
09:07PM EST


 

Airport Tracker/Info


-or-


 

Live Flight TrackerFlight Track Log ✈ GTI4241 ✈ 25-Feb-2014 ✈ KJFK - KIAB

Flight Track Log - Related Links

Times and Time Zones

All times are in EST time to prevent confusion due to time zone crossing. See the GTI4241 flight status page for this flight to view local times or setup timezone preferences in your user account.

Time Position Orientation Groundspeed Altitude Reporting Facility
EST Latitude Longitude Course Direction KTS MPH feet Rate Location/Type
01:27AM 41.1364 -73.9624 288° West  Level FlightAware Approximate
01:27AM 40.8238 -73.7096 288° West 341 392 16,500  Level FlightAware ADS-B (KSNC)
01:27AM 40.8895 -73.7252 350° North 340 391 18,700 3,120 Climbing FlightAware ADS-B (KSNC)
01:28AM 40.9333 -73.7469 339° North 318 366 20,200 2,880 Climbing FlightAware ADS-B (KSNC)
01:28AM 40.9516 -73.7654 323° Northwest 306 352 20,900 1,500 Climbing FlightAware ADS-B (KSNC)
01:29AM 40.9847 -73.8278 323° Northwest 314 361 21,900 600 Climbing New York Center
01:30AM 40.9878 -73.9461 272° West 279 321 22,000 60 Climbing New York Center
01:31AM 40.9844 -74.0642 268° West 299 344 22,100 1,080 Climbing New York Center
01:32AM 40.9831 -74.1822 269° West 310 357 24,200 1,980 Climbing New York Center
01:33AM 40.9756 -74.3000 265° West 322 371 26,100 1,800 Climbing New York Center
01:34AM 40.9697 -74.4261 267° West 339 390 27,800 1,500 Climbing New York Center
01:35AM 40.9633 -74.5575 266° West 347 399 29,100 1,260 Climbing New York Center
01:36AM 40.9589 -74.6919 268° West 358 412 30,400 1,380 Climbing New York Center
01:37AM 40.9522 -74.8289 266° West 372 428 31,900 1,440 Climbing New York Center
01:38AM 40.9453 -74.9686 266° West 377 434 33,300 1,500 Climbing New York Center
01:39AM 40.9400 -75.1194 267° West 384 442 34,900 1,200 Climbing New York Center
01:40AM 40.9279 -75.3188 267° West 369 425 36,300 900 Climbing FlightAware ADS-B
01:41AM 40.9239 -75.3767 267° West 384 442 36,700 660 Climbing New York Center
01:42AM 40.9164 -75.5106 266° West 384 442 37,400 600 Climbing New York Center
01:43AM 40.9111 -75.6447 267° West 384 442 38,000 300 Climbing New York Center
01:44AM 40.9028 -75.7925 266° West 379 436 38,000  Level New York Center
01:45AM 40.8950 -75.9236 266° West 374 430 38,000  Level New York Center
01:46AM 40.8850 -76.0575 264° West 369 425 38,000  Level New York Center
01:47AM 40.8769 -76.1886 265° West 364 419 38,000  Level New York Center
01:48AM 40.8689 -76.3197 265° West 364 419 38,000  Level New York Center
01:49AM 40.8603 -76.4533 265° West 364 419 38,000  Level New York Center
01:50AM 40.8558 -76.5875 268° West 364 419 38,000  Level New York Center
01:51AM 40.8453 -76.7183 264° West 364 419 38,000  Level New York Center
01:52AM 40.8364 -76.8547 265° West 364 419 38,000  Level New York Center
01:53AM 40.8294 -76.9886 266° West 364 419 38,000  Level New York Center
01:54AM 40.8181 -77.1219 264° West 364 419 38,000  Level New York Center
01:56AM 40.8028 -77.3661 265° West 374 430 38,000  Level Cleveland Center
01:57AM 40.7939 -77.5033 265° West 375 432 38,000  Level Cleveland Center
01:58AM 40.7833 -77.6428 264° West 380 437 38,000  Level Cleveland Center
01:59AM 40.7739 -77.7792 265° West 378 435 38,000  Level Cleveland Center
02:00AM 40.7625 -77.9164 264° West 378 435 38,000  Level Cleveland Center
02:01AM 40.7531 -78.0539 265° West 377 434 38,000  Level Cleveland Center
02:02AM 40.7428 -78.1900 264° West 376 433 38,000  Level Cleveland Center
02:03AM 40.7322 -78.3275 264° West 375 432 38,000  Level Cleveland Center
02:04AM 40.7219 -78.4653 264° West 375 432 38,000  Level Cleveland Center
02:05AM 40.7108 -78.6017 264° West 375 432 38,000  Level Cleveland Center
02:06AM 40.7000 -78.7383 264° West 375 432 38,000  Level Cleveland Center
02:07AM 40.6878 -78.8756 263° West 375 432 38,000  Level Cleveland Center
02:13AM 40.6123 -79.7437 263° West 382 440 38,000  Level FlightAware ADS-B (EPWA / WAW)
02:14AM 40.6017 -79.8593 263° West 384 442 38,000  Level FlightAware ADS-B (EPWA / WAW)
02:15AM 40.5950 -79.9310 263° West 384 442 38,000  Level FlightAware ADS-B (CYYZ)
02:15AM 40.5868 -80.0189 263° West 385 443 38,000  Level FlightAware ADS-B (CYYZ)
02:15AM 40.5831 -80.0583 263° West 385 443 38,000  Level FlightAware ADS-B
02:16AM 40.5804 -80.0883 263° West 385 443 38,000  Level FlightAware ADS-B (CYYZ)
02:16AM 40.5768 -80.1256 263° West 385 443 38,000  Level FlightAware ADS-B
02:17AM 40.5685 -80.2137 263° West 385 443 38,000  Level FlightAware ADS-B
02:17AM 40.5613 -80.2878 263° West 385 443 38,000  Level FlightAware ADS-B
02:18AM 40.5544 -80.3597 263° West 385 443 38,000  Level FlightAware ADS-B
02:18AM 40.5477 -80.4293 263° West 383 441 38,000  Level FlightAware ADS-B
02:19AM 40.5389 -80.5214 263° West 383 441 38,000  Level FlightAware ADS-B
02:19AM 40.5325 -80.5860 263° West 382 440 38,000  Level FlightAware ADS-B
02:20AM 40.5250 -80.6617 263° West 382 440 38,000  Level Indianapolis Center
02:21AM 40.5119 -80.8011 263° West 382 440 38,000  Level Indianapolis Center
02:22AM 40.4978 -80.9417 262° West 382 440 38,000  Level Cleveland Center
02:23AM 40.4836 -81.0786 262° West 382 440 38,000  Level Cleveland Center
02:24AM 40.4692 -81.2150 262° West 381 438 38,000  Level Cleveland Center
02:25AM 40.4547 -81.3525 262° West 381 438 38,000  Level Cleveland Center
02:26AM 40.4403 -81.4939 262° West 377 434 38,000  Level Cleveland Center
02:27AM 40.4247 -81.6331 262° West 378 435 38,000  Level Cleveland Center
02:28AM 40.4125 -81.7500 262° West 379 436 38,000  Level Indianapolis Center
02:29AM 40.3972 -81.8886 262° West 379 436 38,000  Level Indianapolis Center
02:30AM 40.3819 -82.0261 262° West 379 436 38,000  Level Indianapolis Center
02:31AM 40.3669 -82.1642 262° West 379 436 38,000  Level Indianapolis Center
02:32AM 40.3481 -82.3169 261° West 379 436 38,000  Level Indianapolis Center
02:34AM 40.3167 -82.5892 261° West 378 435 38,000  Level Cleveland Center
02:35AM 40.3011 -82.7244 261° West 378 435 38,000  Level Cleveland Center
02:36AM 40.2850 -82.8611 261° West 378 435 38,000  Level Cleveland Center
02:37AM 40.2686 -82.9961 261° West 378 435 38,000  Level Cleveland Center
02:38AM 40.2522 -83.1314 261° West 379 436 38,000  Level Indianapolis Center
02:39AM 40.2361 -83.2675 261° West 379 436 38,000  Level Indianapolis Center
02:40AM 40.2192 -83.4019 261° West 379 436 38,000  Level Indianapolis Center
02:41AM 40.2025 -83.5364 261° West 379 436 38,000  Level Indianapolis Center
02:42AM 40.1858 -83.6697 261° West 379 436 38,000  Level Indianapolis Center
02:43AM 40.1683 -83.8036 260° West 379 436 38,000  Level Indianapolis Center
02:44AM 40.1517 -83.9394 261° West 379 436 38,000  Level Indianapolis Center
02:45AM 40.1339 -84.0733 260° West 379 436 38,000  Level Indianapolis Center
02:46AM 40.1150 -84.2094 260° West 379 436 38,000  Level Indianapolis Center
02:47AM 40.0978 -84.3458 261° West 380 437 38,000  Level Indianapolis Center
02:48AM 40.0797 -84.4811 260° West 380 437 38,000  Level Indianapolis Center
02:49AM 40.0619 -84.6175 260° West 381 438 38,000  Level Indianapolis Center
02:50AM 40.0439 -84.7528 260° West 380 437 38,000  Level Indianapolis Center
02:51AM 40.0242 -84.8886 259° West 381 438 38,000  Level Indianapolis Center
02:57AM 39.9075 -85.7236 259° West 382 440 38,000  Level FlightAware ADS-B
02:58AM 39.8847 -85.8791 259° West 382 440 38,000  Level FlightAware ADS-B
02:59AM 39.8651 -86.0120 259° West 382 440 38,000  Level FlightAware ADS-B
03:00AM 39.8483 -86.1248 259° West 383 441 38,000  Level FlightAware ADS-B
03:02AM 39.8012 -86.4388 259° West 382 440 38,000  Level FlightAware ADS-B (KMDW)
03:03AM 39.7895 -86.5154 259° West 382 440 38,000  Level FlightAware ADS-B (KMDW)
03:03AM 39.7759 -86.6055 259° West 382 440 38,000  Level FlightAware ADS-B (KMDW)
03:04AM 39.7648 -86.6774 259° West 381 438 38,000  Level FlightAware ADS-B (KMDW)
03:05AM 39.7513 -86.7647 259° West 381 438 38,000  Level FlightAware ADS-B (KMDW)
03:05AM 39.7381 -86.8495 259° West 379 436 38,000  Level FlightAware ADS-B (KMDW)
03:07AM 39.7029 -87.0734 259° West 375 432 38,000  Level FlightAware ADS-B (KMDW)
03:07AM 39.6922 -87.1415 258° West 372 428 38,000  Level FlightAware ADS-B (KMDW)
03:08AM 39.6820 -87.2070 259° West 371 427 38,000  Level FlightAware ADS-B (KMDW)
03:08AM 39.6716 -87.2723 258° West 370 426 38,000  Level FlightAware ADS-B (KMDW)
03:09AM 39.6612 -87.3373 258° West 369 425 38,000  Level FlightAware ADS-B (KMDW)
03:10AM 39.6476 -87.4214 258° West 367 422 38,000  Level FlightAware ADS-B (KMDW)
03:11AM 39.6267 -87.5500 258° West 366 421 38,000  Level FlightAware ADS-B (KMDW)
03:11AM 39.6163 -87.6144 258° West 366 421 38,000  Level FlightAware ADS-B (KMDW)
03:12AM 39.5985 -87.7241 258° West 367 422 38,000  Level FlightAware ADS-B (KMDW)
03:13AM 39.5757 -87.8635 258° West 367 422 38,000  Level FlightAware ADS-B (KMDW)
03:16AM 39.5092 -88.2609 258° West 369 425 38,000  Level FlightAware ADS-B (KMDW)
03:17AM 39.4917 -88.3644 258° West 369 425 38,000  Level Indianapolis Center
03:18AM 39.4681 -88.4939 257° West 369 425 38,000  Level Indianapolis Center
03:19AM 39.4472 -88.6233 258° West 369 425 38,000  Level Indianapolis Center
03:20AM 39.4250 -88.7533 258° West 369 425 38,000  Level Indianapolis Center
03:21AM 39.4022 -88.8828 257° West 369 425 38,000  Level Indianapolis Center
03:22AM 39.3783 -89.0150 257° West 371 427 38,000  Level Indianapolis Center
03:23AM 39.3539 -89.1619 258° West 371 427 38,000  Level Kansas City Center
03:24AM 39.3303 -89.2922 257° West 371 427 38,000  Level Kansas City Center
03:25AM 39.3078 -89.4197 257° West 371 427 38,000  Level Kansas City Center
03:26AM 39.2844 -89.5469 257° West 369 425 38,000  Level Kansas City Center
03:27AM 39.2611 -89.6742 257° West 369 425 38,000  Level Kansas City Center
03:28AM 39.2375 -89.8014 257° West 368 423 38,000  Level Kansas City Center
03:29AM 39.2147 -89.9294 257° West 368 423 38,000  Level Kansas City Center
03:30AM 39.1911 -90.0581 257° West 369 425 38,000  Level Kansas City Center
03:31AM 39.1661 -90.1878 256° West 370 426 38,000  Level Kansas City Center
03:32AM 39.1419 -90.3183 257° West 373 429 38,000  Level Kansas City Center
03:33AM 39.1169 -90.4489 256° West 375 432 38,000  Level Kansas City Center
03:34AM 39.0919 -90.5811 256° West 380 437 38,000  Level Kansas City Center
03:35AM 39.0678 -90.7119 257° West 381 438 38,000  Level Kansas City Center
03:36AM 39.0414 -90.8431 256° West 381 438 38,000  Level Kansas City Center
03:37AM 39.0161 -90.9772 256° West 384 442 38,000  Level Kansas City Center
03:38AM 38.9908 -91.1094 256° West 384 442 38,000  Level Kansas City Center
03:39AM 38.9592 -91.2717 256° West 385 443 38,000  Level Kansas City Center
03:40AM 38.9311 -91.4050 255° West 387 445 38,000  Level Kansas City Center
03:41AM 38.9042 -91.5389 256° West 387 445 38,000  Level Kansas City Center
03:42AM 38.8775 -91.6736 256° West 387 445 38,000  Level Kansas City Center
03:43AM 38.8517 -91.8089 256° West 387 445 38,000  Level Kansas City Center
03:44AM 38.8236 -91.9442 255° West 388 447 38,000  Level Kansas City Center
03:45AM 38.7958 -92.0778 255° West 388 447 38,000  Level Kansas City Center
03:46AM 38.7681 -92.2111 255° West 388 447 38,000  Level Kansas City Center
03:47AM 38.7406 -92.3453 255° West 388 447 38,000  Level Kansas City Center
03:48AM 38.7128 -92.4772 255° West 388 447 38,000  Level Kansas City Center
03:49AM 38.6844 -92.6092 255° West 388 447 38,000  Level Kansas City Center
03:50AM 38.6572 -92.7425 255° West 388 447 38,000  Level Kansas City Center
03:51AM 38.6286 -92.8742 254° West 387 445 38,000  Level Kansas City Center
03:52AM 38.6000 -93.0056 254° West 387 445 38,000  Level Kansas City Center
03:53AM 38.5703 -93.1411 254° West 386 444 38,000  Level Kansas City Center
03:54AM 38.5431 -93.2675 255° West 386 444 38,000  Level Kansas City Center
03:55AM 38.5156 -93.3992 255° West 385 443 38,000  Level Kansas City Center
03:56AM 38.4869 -93.5289 254° West 383 441 38,000  Level Kansas City Center
03:57AM 38.4581 -93.6581 254° West 382 440 38,000  Level Kansas City Center
03:58AM 38.4289 -93.7853 254° West 379 436 38,000  Level Kansas City Center
03:59AM 38.4022 -93.9114 255° West 374 430 38,000  Level Kansas City Center
04:00AM 38.3736 -94.0389 254° West 373 429 38,000  Level Kansas City Center
04:02AM 38.3169 -94.2897 252° West 373 429 38,000  Level Kansas City Center
04:03AM 38.2847 -94.4333 254° West 373 429 38,000  Level Kansas City Center
04:04AM 38.2592 -94.5561 255° West 373 429 38,000  Level Kansas City Center
04:05AM 38.2406 -94.6817 259° West 374 430 38,000  Level Kansas City Center
04:06AM 38.2200 -94.8219 259° West 374 430 38,000  Level Kansas City Center
04:07AM 38.1989 -94.9514 258° West 374 430 38,000  Level Kansas City Center
04:08AM 38.1789 -95.0769 259° West 374 430 38,000  Level Kansas City Center
04:09AM 38.1531 -95.2000 255° West 375 432 38,000  Level Kansas City Center
04:10AM 38.1169 -95.3436 252° West 379 436 38,000  Level Kansas City Center
04:11AM 38.0867 -95.4683 253° West 380 437 38,000  Level Kansas City Center
04:12AM 38.0553 -95.5914 252° West 381 438 38,000  Level Kansas City Center
04:13AM 38.0247 -95.7144 253° West 381 438 38,000  Level Kansas City Center
04:14AM 37.9889 -95.8567 252° West 381 438 38,000 -120 Level Kansas City Center
04:15AM 37.9583 -95.9781 252° West 381 438 37,800 -1,080 Descending Kansas City Center
04:16AM 37.9303 -96.0858 252° West 367 422 35,900 -1,920 Descending Kansas City Center
04:17AM 37.8981 -96.2111 252° West 362 417 33,900 -2,040 Descending Kansas City Center
04:18AM 37.8667 -96.3322 252° West 362 417 31,900 -2,340 Descending Kansas City Center
04:19AM 37.8344 -96.4572 252° West 371 427 29,400 -3,000 Descending Kansas City Center
04:20AM 37.8197 -96.5200 253° West 379 436 27,800 -4,020 Descending Kansas City Center
04:20AM 37.8164 -96.5286 244° Southwest 379 436 27,400 -2,340 Descending Kansas City Center
04:20AM 37.8019 -96.5828 251° West 375 432 26,300 -3,000 Descending Kansas City Center
04:21AM 37.7819 -96.6614 252° West 370 426 24,400 -2,820 Descending Kansas City Center
04:22AM 37.7703 -96.7039 251° West 366 421 23,300 -3,360 Descending Kansas City Center
04:22AM 37.7625 -96.7786 263° West 342 394 21,000 -4,440 Descending Kansas City Center
04:22AM 37.7633 -96.8228 271° West 341 392 19,100 -4,380 Descending Kansas City Center
04:23AM 37.7600 -96.8983 267° West 331 381 16,800 -3,780 Descending Kansas City Center
04:23AM 37.7597 -96.9381 270° West 332 382 15,300 -3,840 Descending Kansas City Center
04:24AM 37.7567 -97.0100 267° West 322 371 12,800 -3,900 Descending Kansas City Center
04:24AM 37.7547 -97.0506 267° West 326 375 11,400 -3,300 Descending Kansas City Center
04:25AM 37.7833 -97.1092 302° West 309 356 9,500 -2,520 Descending Kansas City Center
04:26AM 37.8011 -97.1389 307° West 308 354 8,800 -1,800 Descending Kansas City Center
04:26AM 37.8311 -97.1864 309° West 264 304 7,700 -2,700 Descending Kansas City Center
04:26AM 37.8269 -97.2342 264° West 259 298 6,200 -2,820 Descending Kansas City Center
04:27AM 37.8000 -97.2547 211° Southwest 260 299 4,900 -2,760 Descending Kansas City Center
04:28AM 37.7594 -97.2528 178° South 260 299 3,400 -1,800 Descending Kansas City Center
04:28AM 37.7297 -97.2447 168° South 247 284 3,100 -720 Descending Kansas City Center
04:29AM 37.6972 -97.2494 187° South 242 278 2,700 -900 Descending Kansas City Center
04:29AM 37.6742 -97.2561 193° South 186 214 2,200 -1,140 Descending Kansas City Center
04:30AM 37.6461 -97.2622 190° South 209 241 1,600 -1,140 Descending Kansas City Center
04:32AM 37.6167 -97.2667 270° West  Level FlightAware Approximate